Time;durP1;ratioP1;P1;durP2;ratioP2;P2;SDS_P1;SDS_P2;PMS_P1;PMS_P2;Temp;Humidity;BMP_temperature;BMP_pressure;BME280_temperature;BME280_humidity;BME280_pressure;Samples;Min_cycle;Max_cycle;Signal;HPM_P1;HPM_P2
2021/07/23 00:01:09;;;;;;;24.10;8.13;;;;;;;14.11;58.96;99295.50;4996641;28;20141;-78
2021/07/23 00:03:39;;;;;;;23.92;8.73;;;;;;;14.18;58.99;99305.78;4979944;28;20077;-76
2021/07/23 00:06:07;;;;;;;23.10;8.32;;;;;;;14.14;59.16;99300.63;4996499;28;20044;-75
2021/07/23 00:08:33;;;;;;;18.83;7.65;;;;;;;13.90;59.02;99257.78;4996481;28;20084;-77
2021/07/23 00:10:58;;;;;;;19.15;7.22;;;;;;;14.18;59.13;99313.63;5013952;28;20065;-76
2021/07/23 00:13:24;;;;;;;14.75;6.93;;;;;;;13.78;59.22;99247.69;5012414;28;20045;-78
2021/07/23 00:15:50;;;;;;;21.40;6.88;;;;;;;14.15;59.17;99311.94;4996512;28;20045;-75
2021/07/23 00:18:16;;;;;;;14.70;6.18;;;;;;;14.01;59.35;99291.47;4995988;28;20052;-76
2021/07/23 00:20:42;;;;;;;15.75;6.75;;;;;;;14.12;59.37;99309.44;4963553;28;20076;-75
2021/07/23 00:23:08;;;;;;;13.75;6.00;;;;;;;13.99;59.54;99293.28;4963157;28;20034;-77
2021/07/23 00:25:35;;;;;;;12.77;6.10;;;;;;;14.07;59.54;99306.09;5007090;28;20539;-78
2021/07/23 00:28:02;;;;;;;10.65;5.47;;;;;;;14.08;59.69;99313.88;5005846;28;20555;-78
2021/07/23 00:30:28;;;;;;;11.20;5.47;;;;;;;14.00;59.77;99300.22;5016086;28;20523;-77
2021/07/23 00:32:54;;;;;;;12.15;5.10;;;;;;;13.82;59.73;99275.47;5033646;28;20073;-76
2021/07/23 00:35:20;;;;;;;14.93;5.10;;;;;;;14.03;59.84;99320.19;5033010;28;20045;-76
2021/07/23 00:37:46;;;;;;;11.93;4.93;;;;;;;13.94;60.17;99300.41;4998387;28;20093;-75
2021/07/23 00:40:13;;;;;;;13.52;5.00;;;;;;;13.84;60.20;99284.13;5033069;28;20167;-76
2021/07/23 00:42:41;;;;;;;11.20;4.90;;;;;;;13.88;60.01;99295.34;5015468;28;20740;-77
2021/07/23 00:45:09;;;;;;;13.18;4.70;;;;;;;13.89;60.35;99289.22;5015033;28;20136;-75
2021/07/23 00:47:36;;;;;;;13.18;4.38;;;;;;;13.92;60.35;99303.03;5015481;28;20033;-76
2021/07/23 00:50:04;;;;;;;10.45;4.90;;;;;;;13.92;60.43;99308.28;4998398;28;20041;-75
2021/07/23 00:52:30;;;;;;;11.02;5.07;;;;;;;13.87;60.56;99302.34;4998808;28;20052;-77
2021/07/23 00:54:57;;;;;;;14.38;5.05;;;;;;;13.84;60.53;99297.22;5014056;28;20045;-75
2021/07/23 00:57:25;;;;;;;12.68;4.97;;;;;;;13.84;61.02;99298.03;5032463;28;20115;-75
2021/07/23 00:59:51;;;;;;;11.60;5.30;;;;;;;13.71;61.16;99281.03;5014699;28;20044;-76
2021/07/23 01:02:18;;;;;;;15.75;4.80;;;;;;;13.84;61.51;99299.81;4998541;28;20559;-76
2021/07/23 01:04:48;;;;;;;8.88;4.40;;;;;;;13.84;61.35;99299.81;5014297;28;20039;-76
2021/07/23 01:07:15;;;;;;;12.50;4.45;;;;;;;13.74;61.29;99293.13;4997912;28;20041;-76
2021/07/23 01:09:41;;;;;;;11.30;4.43;;;;;;;13.77;61.53;99309.63;5014047;28;20041;-75
2021/07/23 01:12:18;;;;;;;13.95;3.90;;;;;;;13.68;61.73;99283.72;5014431;28;20045;-75
2021/07/23 01:14:44;;;;;;;12.88;4.20;;;;;;;13.74;61.71;99298.38;5014685;28;20049;-76
2021/07/23 01:17:10;;;;;;;7.82;4.65;;;;;;;13.62;61.77;99283.91;5014204;28;20485;-75
2021/07/23 01:19:49;;;;;;;9.00;4.03;;;;;;;13.68;61.87;99289.81;4998850;28;20041;-76
2021/07/23 01:22:18;;;;;;;7.50;4.15;;;;;;;13.66;61.73;99291.63;5033777;28;20052;-75
2021/07/23 01:24:44;;;;;;;9.98;4.15;;;;;;;13.63;62.00;99280.38;5038848;28;20049;-76
2021/07/23 01:27:12;;;;;;;8.93;4.07;;;;;;;13.59;61.98;99274.41;5021082;28;20049;-75
2021/07/23 01:30:09;;;;;;;8.63;3.60;;;;;;;13.65;62.15;99276.84;5031901;28;20129;-74
2021/07/23 01:32:38;;;;;;;8.43;3.88;;;;;;;13.60;62.15;99270.00;4985187;28;20464;-76
2021/07/23 01:35:09;;;;;;;8.63;3.50;;;;;;;13.63;61.85;99272.53;5002655;28;20034;-75
2021/07/23 01:37:39;;;;;;;8.10;3.47;;;;;;;13.63;62.13;99267.31;5014111;28;20049;-77
2021/07/23 01:40:06;;;;;;;9.10;3.40;;;;;;;13.50;62.17;99244.16;4997782;28;20037;-74
2021/07/23 01:42:34;;;;;;;7.18;3.40;;;;;;;13.64;62.40;99263.81;5013243;28;20134;-75
2021/07/23 01:45:01;;;;;;;7.43;3.35;;;;;;;13.54;62.46;99250.16;4997354;28;20459;-76
2021/07/23 01:47:28;;;;;;;8.43;3.72;;;;;;;13.65;62.48;99266.38;4981140;28;20492;-75
2021/07/23 01:49:54;;;;;;;8.63;3.60;;;;;;;13.65;62.31;99260.28;5015043;28;20121;-73
2021/07/23 01:52:20;;;;;;;12.20;3.72;;;;;;;13.55;62.38;99247.50;5013922;28;20389;-75
2021/07/23 01:54:48;;;;;;;5.00;3.00;;;;;;;13.64;62.38;99264.69;5017013;28;20037;-75
2021/07/23 01:57:21;;;;;;;7.75;3.25;;;;;;;13.65;62.71;99263.78;4999370;28;20496;-75
2021/07/23 01:59:52;;;;;;;4.23;2.90;;;;;;;13.49;62.66;99232.00;5016105;28;20067;-75
2021/07/23 02:02:18;;;;;;;8.88;3.22;;;;;;;13.62;62.68;99253.41;5034530;28;20041;-74
2021/07/23 02:04:44;;;;;;;8.13;3.22;;;;;;;13.64;62.71;99254.22;5031485;28;20080;-76
2021/07/23 02:07:10;;;;;;;9.15;3.22;;;;;;;13.72;62.89;99253.97;5014710;28;20037;-74
2021/07/23 02:09:36;;;;;;;5.38;2.85;;;;;;;13.65;62.71;99234.16;5001135;28;20041;-75
2021/07/23 02:12:04;;;;;;;9.10;2.88;;;;;;;13.75;62.82;99243.44;5002422;28;20041;-75
2021/07/23 02:14:59;;;;;;;6.32;2.80;;;;;;;13.83;62.78;99249.25;5006213;28;20094;-75
2021/07/23 02:17:27;;;;;;;6.00;2.63;;;;;;;13.81;62.91;99231.91;5017931;28;20049;-75
2021/07/23 02:19:54;;;;;;;6.10;2.67;;;;;;;13.79;62.77;99225.88;5035291;28;20045;-76
2021/07/23 02:22:22;;;;;;;7.47;3.28;;;;;;;13.85;63.00;99229.16;5001189;28;20049;-76
2021/07/23 02:24:47;;;;;;;4.63;2.70;;;;;;;14.00;62.91;99250.50;5017249;28;20506;-75
2021/07/23 02:27:16;;;;;;;4.80;2.60;;;;;;;14.05;62.76;99243.34;5001324;28;20045;-76
2021/07/23 02:29:46;;;;;;;4.10;2.67;;;;;;;14.11;62.62;99245.78;5016718;28;20041;-75
2021/07/23 02:32:14;;;;;;;6.03;2.72;;;;;;;14.06;62.47;99229.38;5017153;28;20099;-75
2021/07/23 02:34:40;;;;;;;8.43;2.85;;;;;;;14.21;62.80;99240.25;5016922;28;20072;-75
2021/07/23 02:37:06;;;;;;;6.97;2.88;;;;;;;14.29;62.42;99239.09;5017045;28;20515;-75
2021/07/23 02:39:32;;;;;;;7.28;3.28;;;;;;;14.36;62.46;99242.38;5008393;28;20065;-75
2021/07/23 02:42:01;;;;;;;6.95;2.63;;;;;;;14.36;62.48;99231.91;5017193;28;20048;-76
2021/07/23 02:44:32;;;;;;;7.95;2.90;;;;;;;14.55;62.24;99247.84;5000226;28;20735;-75
2021/07/23 02:46:58;;;;;;;6.93;2.88;;;;;;;14.54;62.20;99221.69;5035110;28;20044;-75
2021/07/23 02:49:27;;;;;;;8.15;3.03;;;;;;;14.64;62.13;99217.00;5016613;28;20049;-75
2021/07/23 02:51:53;;;;;;;7.93;3.08;;;;;;;14.81;61.97;99234.78;5000435;28;20040;-75
2021/07/23 02:54:19;;;;;;;6.30;3.00;;;;;;;14.92;61.91;99240.47;5016993;28;20041;-75
2021/07/23 02:56:46;;;;;;;11.32;3.50;;;;;;;14.94;61.75;99227.34;5034180;28;20120;-74
2021/07/23 02:59:13;;;;;;;9.50;3.38;;;;;;;15.08;61.63;99238.16;4984018;28;20477;-75
2021/07/23 03:01:43;;;;;;;12.07;3.10;;;;;;;14.98;61.43;99206.22;5016270;28;20076;-76
2021/07/23 03:04:12;;;;;;;11.73;3.35;;;;;;;15.20;61.46;99239.47;5017089;28;20435;-76
2021/07/23 03:06:39;;;;;;;10.52;3.67;;;;;;;15.29;61.19;99236.53;5034196;28;20042;-75
2021/07/23 03:09:06;;;;;;;9.55;3.40;;;;;;;15.18;61.25;99200.25;5017070;28;20052;-77
2021/07/23 03:11:33;;;;;;;13.68;3.60;;;;;;;15.49;61.12;99229.69;5017414;28;20583;-76
2021/07/23 03:14:06;;;;;;;11.70;3.35;;;;;;;15.59;60.76;99228.41;5017842;28;20049;-76
2021/07/23 03:16:41;;;;;;;11.63;3.78;;;;;;;15.69;60.64;99226.25;5015590;28;20035;-75
2021/07/23 03:19:08;;;;;;;7.75;3.88;;;;;;;15.72;60.35;99206.94;5014873;28;20045;-77
2021/07/23 03:21:34;;;;;;;10.48;3.42;;;;;;;15.90;60.17;99221.97;5016392;28;20045;-77
2021/07/23 03:24:03;;;;;;;14.32;3.40;;;;;;;15.89;60.01;99188.78;5016545;28;20041;-77
2021/07/23 03:26:29;;;;;;;8.20;2.92;;;;;;;16.11;60.10;99211.53;5017526;28;20563;-78
2021/07/23 03:28:56;;;;;;;9.07;2.60;;;;;;;16.33;59.81;99218.50;5000962;28;20052;-77
2021/07/23 03:31:30;;;;;;;8.07;2.85;;;;;;;16.46;59.29;99219.69;5012466;28;20095;-76
2021/07/23 03:34:07;;;;;;;3.33;2.10;;;;;;;16.61;59.13;99201.59;4999732;28;20045;-76
2021/07/23 03:36:54;;;;;;;7.85;2.25;;;;;;;16.79;58.97;99200.78;5016338;28;20037;-76
2021/07/23 03:39:28;;;;;;;6.85;2.08;;;;;;;16.98;58.18;99210.50;5016549;28;20100;-74
2021/07/23 03:41:55;;;;;;;6.15;2.30;;;;;;;17.11;57.92;99189.78;5034058;28;20038;-75
2021/07/23 03:44:21;;;;;;;7.38;2.78;;;;;;;17.21;57.28;99188.44;5020429;28;20045;-75
2021/07/23 03:46:49;;;;;;;5.93;2.50;;;;;;;17.23;57.09;99178.69;5020605;28;20041;-75
2021/07/23 03:49:16;;;;;;;7.85;2.20;;;;;;;17.35;57.03;99189.56;5015506;28;20045;-75
2021/07/23 03:51:44;;;;;;;7.28;2.63;;;;;;;17.36;56.74;99184.22;5016225;28;20972;-76
2021/07/23 03:54:12;;;;;;;5.97;2.58;;;;;;;17.37;56.36;99170.16;5016691;28;20054;-76
2021/07/23 03:56:38;;;;;;;6.63;2.03;;;;;;;17.33;56.28;99151.97;5016641;28;20175;-76
2021/07/23 03:59:07;;;;;;;5.78;1.90;;;;;;;17.41;56.02;99163.84;4999881;28;20048;-77
2021/07/23 04:01:46;;;;;;;4.10;2.05;;;;;;;17.56;56.10;99169.28;5016182;28;20056;-77
2021/07/23 04:04:14;;;;;;;6.22;2.00;;;;;;;17.74;55.60;99181.56;5015540;28;20048;-76
2021/07/23 04:06:43;;;;;;;5.57;2.45;;;;;;;17.82;55.36;99181.19;5016175;28;20045;-77
2021/07/23 04:09:10;;;;;;;4.78;1.80;;;;;;;17.86;55.51;99176.63;4999269;28;20563;-79
2021/07/23 04:11:52;;;;;;;10.80;2.45;;;;;;;17.94;55.13;99168.34;5033707;28;20045;-75
2021/07/23 04:14:25;;;;;;;4.38;2.00;;;;;;;18.05;54.67;99180.09;4999456;28;20043;-76
2021/07/23 04:16:53;;;;;;;6.20;1.80;;;;;;;18.03;54.85;99160.03;4999359;28;20543;-76
2021/07/23 04:19:20;;;;;;;4.10;1.80;;;;;;;18.21;54.49;99177.53;5015485;28;20081;-76
2021/07/23 04:21:52;;;;;;;5.60;1.80;;;;;;;18.30;54.12;99156.94;4998568;28;20064;-76
2021/07/23 04:24:33;;;;;;;3.55;1.55;;;;;;;18.55;53.99;99153.03;5031641;28;20415;-77
2021/07/23 04:26:59;;;;;;;4.63;2.15;;;;;;;19.05;53.57;99159.22;4998503;28;20048;-77
2021/07/23 04:29:26;;;;;;;4.47;1.77;;;;;;;19.42;52.27;99159.81;5001877;28;20046;-76
2021/07/23 04:31:52;;;;;;;5.53;1.85;;;;;;;19.49;51.94;99129.53;4987092;28;20042;-76
2021/07/23 04:34:18;;;;;;;4.22;1.70;;;;;;;19.71;51.55;99150.25;4998158;28;20502;-76
2021/07/23 04:37:08;;;;;;;3.53;1.60;;;;;;;19.96;50.63;99163.88;4989451;28;20073;-74
2021/07/23 04:39:39;;;;;;;1.75;1.42;;;;;;;19.95;50.23;99149.00;4997312;28;20474;-77
2021/07/23 04:42:08;;;;;;;6.32;1.70;;;;;;;20.07;49.99;99150.06;4996565;28;20524;-76
2021/07/23 04:44:35;;;;;;;6.10;1.98;;;;;;;20.40;50.00;99154.28;4979646;28;20525;-77
2021/07/23 04:47:02;;;;;;;4.07;1.75;;;;;;;20.73;49.01;99143.44;5011934;28;20116;-78
2021/07/23 04:49:31;;;;;;;4.43;1.50;;;;;;;20.87;48.32;99136.47;4998149;28;20135;-76
2021/07/23 04:51:59;;;;;;;3.85;1.60;;;;;;;21.12;47.15;99149.03;4986968;28;20037;-77
2021/07/23 04:54:44;;;;;;;3.80;1.60;;;;;;;21.15;47.24;99140.91;5013742;28;20130;-78
2021/07/23 04:57:13;;;;;;;6.00;1.60;;;;;;;21.28;47.29;99143.63;4995485;28;20545;-75
2021/07/23 04:59:40;;;;;;;3.83;1.40;;;;;;;21.33;46.69;99132.72;4980235;28;20425;-77
2021/07/23 05:02:06;;;;;;;4.22;1.50;;;;;;;21.25;46.14;99121.78;5013454;28;20049;-77
2021/07/23 05:04:36;;;;;;;10.23;1.60;;;;;;;21.24;46.53;99133.31;4963519;28;20045;-77
2021/07/23 05:07:03;;;;;;;4.50;1.65;;;;;;;21.14;46.37;99122.47;4995826;28;20053;-77
2021/07/23 05:09:29;;;;;;;3.50;1.48;;;;;;;21.26;46.31;99123.47;5016340;28;20041;-77
2021/07/23 05:11:58;;;;;;;2.25;1.42;;;;;;;21.17;46.74;99130.22;4998257;28;20109;-76
2021/07/23 05:14:25;;;;;;;2.97;1.30;;;;;;;21.08;46.62;99110.50;4997221;28;20144;-76
2021/07/23 05:16:51;;;;;;;4.03;1.52;;;;;;;21.05;46.80;99130.06;4995911;28;20073;-76
2021/07/23 05:19:18;;;;;;;4.70;1.63;;;;;;;20.97;47.12;99129.69;4979826;28;20129;-76
2021/07/23 05:21:45;;;;;;;8.18;1.70;;;;;;;21.04;47.12;99125.72;4996979;28;20107;-76
2021/07/23 05:24:11;;;;;;;6.45;1.55;;;;;;;21.18;46.79;99124.84;5013860;28;20092;-78
2021/07/23 05:26:38;;;;;;;3.58;1.67;;;;;;;21.23;47.09;99100.72;4997458;28;20179;-76
2021/07/23 05:29:06;;;;;;;4.97;2.05;;;;;;;21.33;46.80;99101.81;4977403;28;20046;-75
2021/07/23 05:31:39;;;;;;;7.55;2.10;;;;;;;21.29;46.34;99092.41;5012859;28;20053;-76
2021/07/23 05:34:17;;;;;;;14.75;2.03;;;;;;;21.36;46.43;99092.84;5014337;28;20046;-76
2021/07/23 05:36:43;;;;;;;6.45;2.00;;;;;;;21.62;46.04;99101.75;5021864;28;20046;-75
2021/07/23 05:39:09;;;;;;;7.40;2.13;;;;;;;21.91;45.46;99085.72;4980157;28;20046;-76
2021/07/23 05:41:35;;;;;;;5.75;1.70;;;;;;;22.27;45.25;99073.56;4979172;28;20061;-77
2021/07/23 05:44:01;;;;;;;4.32;1.77;;;;;;;22.71;44.36;99059.97;4996195;28;20034;-78
2021/07/23 05:46:27;;;;;;;7.43;1.60;;;;;;;23.28;43.49;99071.00;4996575;28;20076;-76
2021/07/23 05:48:53;;;;;;;6.18;1.60;;;;;;;23.99;42.69;99063.03;4996261;28;20525;-76
2021/07/23 05:51:19;;;;;;;3.45;1.67;;;;;;;24.94;40.89;99053.91;4963967;28;20052;-76
2021/07/23 05:53:45;;;;;;;7.60;1.70;;;;;;;25.44;39.62;99065.91;4979786;28;20402;-75
2021/07/23 05:56:11;;;;;;;8.23;1.70;;;;;;;25.42;38.61;99051.84;4995708;28;20048;-77
2021/07/23 05:58:43;;;;;;;4.13;1.30;;;;;;;25.64;38.43;99064.22;5004243;28;20133;-75
2021/07/23 06:01:22;;;;;;;3.58;1.25;;;;;;;26.70;36.61;99029.47;4983143;28;20046;-75
2021/07/23 06:03:47;;;;;;;6.93;1.65;;;;;;;27.80;36.29;99045.47;5015707;28;20088;-77
2021/07/23 06:06:16;;;;;;;6.60;1.52;;;;;;;28.62;33.71;99031.56;4998651;28;20047;-76
2021/07/23 06:08:42;;;;;;;10.65;1.70;;;;;;;29.14;32.24;99034.53;5021484;28;20068;-75
2021/07/23 06:11:08;;;;;;;4.93;1.63;;;;;;;29.74;32.22;99008.94;5011972;28;20049;-76
2021/07/23 06:13:47;;;;;;;6.10;1.73;;;;;;;29.70;31.38;99012.94;5011480;28;20489;-77
2021/07/23 06:16:16;;;;;;;4.45;1.45;;;;;;;29.98;30.67;99020.84;5011573;28;20030;-77
2021/07/23 06:18:42;;;;;;;2.47;1.67;;;;;;;29.89;30.07;99008.38;4995763;28;20042;-75
2021/07/23 06:21:09;;;;;;;2.53;1.63;;;;;;;29.66;30.24;99011.59;5010650;28;20053;-76
2021/07/23 06:23:35;;;;;;;4.95;1.45;;;;;;;29.35;30.59;99013.81;4994855;28;20089;-76
2021/07/23 06:26:04;;;;;;;2.35;1.27;;;;;;;28.89;30.86;99019.22;5025584;28;20152;-77
2021/07/23 06:28:31;;;;;;;3.83;1.33;;;;;;;28.38;31.00;99025.78;5026756;28;20033;-77
2021/07/23 06:31:04;;;;;;;4.45;1.33;;;;;;;27.72;31.58;99010.59;5018071;28;20041;-77
2021/07/23 06:33:31;;;;;;;4.70;1.20;;;;;;;27.94;31.76;99022.81;4982979;28;20044;-77
2021/07/23 06:35:59;;;;;;;4.43;1.27;;;;;;;29.21;30.49;99009.84;5015910;28;20049;-78
2021/07/23 06:38:26;;;;;;;6.72;1.40;;;;;;;30.86;29.06;98997.44;4982949;28;20051;-76
2021/07/23 06:40:53;;;;;;;1.67;1.00;;;;;;;32.64;27.54;98995.09;5014259;28;20045;-77
2021/07/23 06:43:20;;;;;;;5.57;1.27;;;;;;;34.17;26.18;98985.28;4997602;28;20034;-77
2021/07/23 06:45:56;;;;;;;4.28;1.40;;;;;;;34.72;24.47;98974.16;5031342;28;20119;-77
2021/07/23 06:48:22;;;;;;;5.90;1.30;;;;;;;35.48;23.42;98985.50;5031585;28;20037;-76
2021/07/23 06:50:51;;;;;;;5.32;1.75;;;;;;;36.09;22.77;98982.22;5013549;28;20199;-76
2021/07/23 06:53:18;;;;;;;5.75;1.42;;;;;;;36.62;21.69;98987.03;5014742;28;20045;-76
2021/07/23 06:55:44;;;;;;;2.92;1.20;;;;;;;36.77;20.85;98969.78;5017540;28;20052;-76
2021/07/23 06:58:10;;;;;;;7.20;1.60;;;;;;;36.99;20.66;98984.03;5017350;28;20037;-77
2021/07/23 07:00:36;;;;;;;4.03;1.40;;;;;;;37.53;20.04;98976.78;5017367;28;20041;-77
2021/07/23 07:03:06;;;;;;;4.70;1.52;;;;;;;37.78;19.75;98984.28;5001251;28;20531;-76
2021/07/23 07:05:33;;;;;;;4.20;1.80;;;;;;;37.53;19.68;98971.38;5011489;28;20495;-77
2021/07/23 07:07:59;;;;;;;3.58;1.52;;;;;;;38.05;19.09;98969.84;5002391;28;20170;-77
2021/07/23 07:10:26;;;;;;;6.63;1.48;;;;;;;38.68;18.43;98955.59;5000208;28;20184;-76
2021/07/23 07:12:59;;;;;;;9.45;1.50;;;;;;;38.99;17.63;98967.53;5033936;28;20459;-77
2021/07/23 07:15:25;;;;;;;6.68;1.15;;;;;;;39.22;17.83;98968.81;5034133;28;20048;-78
2021/07/23 07:17:59;;;;;;;8.70;1.30;;;;;;;39.52;17.37;98961.91;5016837;28;20041;-77
2021/07/23 07:20:25;;;;;;;5.85;1.40;;;;;;;39.65;17.11;98950.06;5034189;28;20041;-76
2021/07/23 07:22:55;;;;;;;9.50;1.48;;;;;;;39.46;17.08;98961.75;5016421;28;20493;-79
2021/07/23 07:25:22;;;;;;;5.18;1.23;;;;;;;39.14;17.21;98963.69;5016325;28;20488;-79
2021/07/23 07:27:48;;;;;;;7.78;1.23;;;;;;;38.86;17.42;98952.13;5000577;28;20076;-78
2021/07/23 07:30:15;;;;;;;6.75;1.17;;;;;;;39.20;17.47;98957.34;5017113;28;20041;-78
2021/07/23 07:32:41;;;;;;;8.20;1.70;;;;;;;38.77;16.76;98949.88;5016851;28;20041;-78
2021/07/23 07:35:08;;;;;;;6.13;1.75;;;;;;;38.06;17.62;98923.47;5017685;28;20132;-77
2021/07/23 07:37:34;;;;;;;7.78;1.45;;;;;;;38.89;17.70;98928.28;5024547;28;20045;-78
2021/07/23 07:40:00;;;;;;;7.30;2.05;;;;;;;39.28;16.79;98938.03;5051365;28;20057;-77
2021/07/23 07:42:26;;;;;;;7.68;1.60;;;;;;;40.11;16.19;98932.41;5002809;28;20033;-78
2021/07/23 07:44:57;;;;;;;8.52;1.60;;;;;;;40.17;16.10;98925.19;5034326;28;20072;-75
2021/07/23 07:47:23;;;;;;;7.65;1.30;;;;;;;39.83;16.43;98917.47;5017126;28;20040;-77
2021/07/23 07:49:50;;;;;;;11.32;1.60;;;;;;;40.17;16.21;98939.66;5016828;28;20064;-78
2021/07/23 07:52:17;;;;;;;8.02;1.83;;;;;;;40.44;16.18;98930.34;5016417;28;20045;-77
2021/07/23 07:54:43;;;;;;;6.22;1.27;;;;;;;40.72;15.99;98918.84;5016203;28;20056;-78
2021/07/23 07:57:10;;;;;;;4.00;1.85;;;;;;;41.76;14.93;98924.06;5016333;28;20528;-80
2021/07/23 07:59:37;;;;;;;5.25;1.40;;;;;;;41.69;15.37;98927.75;5016001;28;20072;-77
2021/07/23 08:02:09;;;;;;;8.90;1.40;;;;;;;41.72;15.15;98920.97;4999722;28;20528;-78
2021/07/23 08:04:36;;;;;;;7.03;1.23;;;;;;;40.41;15.59;98928.91;5015083;28;20512;-77
2021/07/23 08:07:09;;;;;;;4.15;1.40;;;;;;;40.36;16.17;98920.59;5015947;28;20405;-77
2021/07/23 08:09:53;;;;;;;10.00;1.60;;;;;;;40.71;15.52;98910.91;4999808;28;20091;-76
2021/07/23 08:12:22;;;;;;;5.95;1.20;;;;;;;40.44;15.79;98917.56;5040169;28;20130;-77
2021/07/23 08:14:51;;;;;;;6.93;1.40;;;;;;;40.93;15.14;98913.94;4999847;28;20068;-77
2021/07/23 08:17:18;;;;;;;6.35;1.52;;;;;;;40.73;15.12;98911.50;5015393;28;20137;-76
2021/07/23 08:19:45;;;;;;;5.35;1.30;;;;;;;39.61;16.16;98893.34;5015295;28;20053;-77
2021/07/23 08:22:10;;;;;;;15.48;1.95;;;;;;;39.54;16.65;98914.38;5014717;28;20033;-77
2021/07/23 08:24:38;;;;;;;9.15;1.98;;;;;;;38.38;17.05;98907.28;4979275;28;20096;-78
2021/07/23 08:27:04;;;;;;;9.85;1.55;;;;;;;37.35;17.84;98906.06;4997152;28;20034;-77
2021/07/23 08:29:30;;;;;;;6.90;1.63;;;;;;;36.87;18.77;98907.91;5013632;28;20046;-77
2021/07/23 08:32:05;;;;;;;9.77;5.78;;;;;;;35.97;19.31;98889.94;4997016;28;20040;-76
2021/07/23 08:34:30;;;;;;;6.63;1.70;;;;;;;35.32;19.65;98898.22;4996912;28;20124;-77
2021/07/23 08:36:56;;;;;;;4.75;1.92;;;;;;;34.43;20.59;98902.19;4997293;28;20065;-76
2021/07/23 08:39:22;;;;;;;11.90;4.18;;;;;;;33.33;21.42;98906.22;4980937;28;20493;-78
2021/07/23 08:41:48;;;;;;;10.70;1.98;;;;;;;32.07;22.43;98913.56;4979962;28;20057;-77
2021/07/23 08:44:15;;;;;;;4.05;1.67;;;;;;;30.90;23.71;98915.56;4979426;28;20393;-77
2021/07/23 08:46:42;;;;;;;7.88;4.38;;;;;;;29.85;25.01;98914.00;5011726;28;20052;-77
2021/07/23 08:49:11;;;;;;;16.92;9.90;;;;;;;29.28;26.27;98912.63;4995479;28;20431;-77
2021/07/23 08:51:38;;;;;;;22.77;13.32;;;;;;;29.15;26.59;98907.69;5013198;28;20093;-77
2021/07/23 08:54:05;;;;;;;6.05;2.72;;;;;;;28.95;27.04;98916.88;4995713;28;20421;-76
2021/07/23 08:56:31;;;;;;;4.63;1.90;;;;;;;28.73;27.49;98919.00;4995745;28;20586;-76
2021/07/23 08:58:58;;;;;;;4.82;1.92;;;;;;;28.49;27.82;98900.84;5013879;28;20136;-76
2021/07/23 09:01:28;;;;;;;13.32;2.05;;;;;;;28.17;28.18;98908.34;4996891;28;20128;-76
2021/07/23 09:03:55;;;;;;;4.05;2.00;;;;;;;27.64;28.62;98881.28;4996606;28;20038;-76
2021/07/23 09:06:22;;;;;;;6.13;2.05;;;;;;;27.44;29.30;98901.81;4997165;28;20120;-76
2021/07/23 09:08:54;;;;;;;5.10;2.25;;;;;;;27.19;29.41;98909.44;4997251;28;20502;-76
2021/07/23 09:11:30;;;;;;;7.50;2.80;;;;;;;26.88;30.21;98909.59;4955264;28;20053;-77
2021/07/23 09:14:15;;;;;;;7.68;1.92;;;;;;;26.62;30.75;98895.91;4995043;28;20045;-77
2021/07/23 09:16:43;;;;;;;12.25;2.45;;;;;;;26.53;30.93;98889.59;4980967;28;20042;-75
2021/07/23 09:19:38;;;;;;;9.38;2.97;;;;;;;25.93;31.33;98828.28;4967719;28;20076;-77
2021/07/23 09:22:20;;;;;;;4.93;2.08;;;;;;;26.12;31.73;98911.00;5011401;28;20037;-76
2021/07/23 09:25:09;;;;;;;5.68;1.40;;;;;;;25.50;32.43;98873.66;4989660;28;20455;-78
2021/07/23 09:27:38;;;;;;;5.18;1.85;;;;;;;25.46;33.35;98909.53;5014280;28;20033;-78
2021/07/23 09:30:07;;;;;;;7.47;1.75;;;;;;;25.11;34.14;98895.53;5013606;28;20041;-77
2021/07/23 09:32:33;;;;;;;7.18;1.90;;;;;;;24.87;34.38;98892.25;5013422;28;20095;-77
2021/07/23 09:35:14;;;;;;;7.15;3.40;;;;;;;24.75;34.67;98888.81;5013986;28;20052;-78
2021/07/23 09:37:59;;;;;;;6.82;2.92;;;;;;;24.55;35.00;98883.28;5032208;28;20037;-79
2021/07/23 09:40:38;;;;;;;5.70;2.72;;;;;;;24.70;35.10;98901.59;5013520;28;20049;-79
2021/07/23 09:43:05;;;;;;;7.13;2.40;;;;;;;24.74;35.00;98869.31;5022004;28;20128;-77
2021/07/23 09:45:33;;;;;;;6.85;3.20;;;;;;;25.21;34.26;98890.28;5017055;28;20317;-78
2021/07/23 09:48:27;;;;;;;8.38;2.60;;;;;;;25.33;34.34;98882.22;4998405;28;20087;-78
2021/07/23 09:50:55;;;;;;;6.95;2.60;;;;;;;25.46;33.84;98871.41;5029707;28;20132;-79
2021/07/23 09:53:21;;;;;;;8.45;2.42;;;;;;;26.44;33.88;98855.78;5031708;28;20033;-78
2021/07/23 09:55:47;;;;;;;5.68;2.40;;;;;;;27.32;31.78;98858.41;5030824;28;20507;-78
2021/07/23 09:58:20;;;;;;;9.10;2.33;;;;;;;27.19;31.98;98856.03;5013991;28;20041;-79
2021/07/23 10:00:53;;;;;;;3.83;2.20;;;;;;;26.74;31.35;98861.94;4997227;28;20041;-76
2021/07/23 10:03:23;;;;;;;7.35;2.08;;;;;;;26.11;31.75;98858.63;5013434;28;20037;-77
2021/07/23 10:05:56;;;;;;;6.45;2.20;;;;;;;25.61;32.05;98848.75;5030695;28;20591;-78
2021/07/23 10:08:30;;;;;;;8.68;3.05;;;;;;;25.26;32.39;98848.16;5013486;28;20409;-77
2021/07/23 10:10:58;;;;;;;4.95;2.42;;;;;;;25.10;33.00;98866.38;5030812;28;20053;-77
2021/07/23 10:13:29;;;;;;;7.03;2.40;;;;;;;25.40;33.33;98875.41;4997557;28;20034;-77
2021/07/23 10:15:55;;;;;;;10.27;2.60;;;;;;;27.14;31.93;98846.78;5014752;28;20046;-78
2021/07/23 10:18:23;;;;;;;4.90;2.47;;;;;;;28.73;29.56;98846.75;4997614;28;20037;-78
2021/07/23 10:20:49;;;;;;;9.43;2.50;;;;;;;29.56;27.28;98828.63;5014318;28;20744;-79
2021/07/23 10:23:20;;;;;;;4.05;2.40;;;;;;;29.53;26.76;98812.84;5013997;28;20092;-76
2021/07/23 10:25:54;;;;;;;13.15;2.50;;;;;;;29.26;26.56;98825.41;5027652;28;20069;-77
2021/07/23 10:28:44;;;;;;;15.82;2.75;;;;;;;28.52;27.21;98829.16;4979869;28;20041;-78
2021/07/23 10:31:24;;;;;;;15.13;2.80;;;;;;;28.33;27.67;98838.16;4981194;28;20042;-78
2021/07/23 10:34:10;;;;;;;10.68;2.47;;;;;;;29.19;26.96;98819.00;5015091;28;20034;-79
2021/07/23 10:36:37;;;;;;;4.82;2.28;;;;;;;29.31;25.95;98807.00;4981789;28;20069;-78
2021/07/23 10:39:10;;;;;;;6.25;2.08;;;;;;;29.35;26.34;98816.41;4997708;28;20069;-77
2021/07/23 10:41:37;;;;;;;8.02;2.22;;;;;;;29.20;26.21;98834.09;4997383;28;20136;-79
2021/07/23 10:44:24;;;;;;;12.20;2.10;;;;;;;29.08;26.31;98828.13;4997391;28;20084;-78
2021/07/23 10:46:50;;;;;;;7.53;2.05;;;;;;;28.80;25.93;98810.34;4952012;28;20049;-78
2021/07/23 10:49:30;;;;;;;9.10;2.55;;;;;;;28.31;25.87;98817.94;4997146;28;20057;-77
2021/07/23 10:52:03;;;;;;;7.70;1.95;;;;;;;28.07;25.96;98822.81;4997163;28;20064;-79
2021/07/23 10:54:34;;;;;;;10.68;2.10;;;;;;;27.89;26.15;98793.41;4997158;28;20425;-78
2021/07/23 10:57:06;;;;;;;10.07;1.80;;;;;;;27.92;25.76;98814.47;5014996;28;20052;-78
2021/07/23 10:59:38;;;;;;;10.05;2.20;;;;;;;27.64;26.67;98824.31;5014143;28;20111;-77
2021/07/23 11:02:14;;;;;;;8.45;1.95;;;;;;;27.40;26.65;98822.13;4980878;28;20046;-77
2021/07/23 11:04:41;;;;;;;7.90;2.10;;;;;;;27.32;26.28;98822.88;4981308;28;20044;-78
2021/07/23 11:07:09;;;;;;;2.53;1.80;;;;;;;27.35;26.22;98827.91;4966291;28;20037;-77
2021/07/23 11:09:35;;;;;;;6.72;2.08;;;;;;;27.35;25.67;98811.91;4997304;28;20038;-75
2021/07/23 11:12:20;;;;;;;2.72;1.80;;;;;;;27.26;26.00;98823.44;5015183;28;20041;-77
2021/07/23 11:15:00;;;;;;;5.20;2.00;;;;;;;27.25;25.97;98853.78;4997485;28;20567;-77
2021/07/23 11:17:30;;;;;;;17.70;3.05;;;;;;;27.20;26.19;98867.56;4980923;28;20073;-77
2021/07/23 11:20:03;;;;;;;26.13;3.45;;;;;;;26.77;27.75;98853.66;5012954;28;20088;-75
2021/07/23 11:22:32;;;;;;;11.52;2.58;;;;;;;26.43;29.44;98881.59;5014842;28;20096;-75
2021/07/23 11:25:01;;;;;;;16.05;2.28;;;;;;;25.94;30.79;98886.75;5020133;28;20541;-74
2021/07/23 11:27:31;;;;;;;23.58;3.75;;;;;;;25.63;32.23;98894.75;5034867;28;20045;-75
2021/07/23 11:29:58;;;;;;;19.25;2.80;;;;;;;25.32;32.85;98908.00;5035566;28;20041;-78
2021/07/23 11:32:27;;;;;;;20.05;2.80;;;;;;;25.00;33.70;98900.06;5020672;28;20064;-77
2021/07/23 11:35:04;;;;;;;10.45;2.65;;;;;;;24.69;34.02;98911.41;5000661;28;20073;-77
2021/07/23 11:37:30;;;;;;;8.45;2.20;;;;;;;24.35;34.92;98899.03;5000400;28;20052;-77
2021/07/23 11:40:02;;;;;;;4.90;2.20;;;;;;;24.15;35.81;98915.75;4999341;28;20045;-77
2021/07/23 11:42:38;;;;;;;3.17;2.20;;;;;;;24.21;36.03;98926.72;5028692;28;20094;-76